sensor_id;sensor_type;location;lat;lon;timestamp;pressure;altitude;pressure_sealevel;temperature;humidity
27685;BME280;46113;50.130;8.526;2023-05-22T00:00:10;98777.53;;;12.85;69.88
27685;BME280;46113;50.130;8.526;2023-05-22T04:02:37;98722.31;;;12.06;71.10
27685;BME280;46113;50.130;8.526;2023-05-22T04:05:06;98718.16;;;12.15;71.30
27685;BME280;46113;50.130;8.526;2023-05-22T04:07:33;98718.66;;;12.20;71.66
27685;BME280;46113;50.130;8.526;2023-05-22T04:10:00;98723.41;;;12.28;71.30
27685;BME280;46113;50.130;8.526;2023-05-22T04:12:27;98717.31;;;12.39;71.09
27685;BME280;46113;50.130;8.526;2023-05-22T04:14:53;98719.88;;;12.52;71.07
27685;BME280;46113;50.130;8.526;2023-05-22T04:17:20;98728.84;;;12.62;70.85
27685;BME280;46113;50.130;8.526;2023-05-22T04:19:47;98720.69;;;12.41;72.36
27685;BME280;46113;50.130;8.526;2023-05-22T04:22:13;98730.94;;;12.70;71.42
27685;BME280;46113;50.130;8.526;2023-05-22T04:24:42;98722.50;;;12.76;70.96
27685;BME280;46113;50.130;8.526;2023-05-22T04:27:08;98720.63;;;13.01;70.15
27685;BME280;46113;50.130;8.526;2023-05-22T04:29:35;98733.13;;;12.88;71.46
27685;BME280;46113;50.130;8.526;2023-05-22T04:32:03;98734.78;;;12.77;69.00
27685;BME280;46113;50.130;8.526;2023-05-22T04:34:32;98730.28;;;13.02;68.98
27685;BME280;46113;50.130;8.526;2023-05-22T04:37:04;98736.84;;;13.09;68.20
27685;BME280;46113;50.130;8.526;2023-05-22T04:39:30;98729.72;;;13.10;67.94
27685;BME280;46113;50.130;8.526;2023-05-22T04:41:57;98733.00;;;13.48;66.85
27685;BME280;46113;50.130;8.526;2023-05-22T04:44:23;98735.19;;;13.20;66.90
27685;BME280;46113;50.130;8.526;2023-05-22T04:46:50;98737.00;;;13.42;66.30
27685;BME280;46113;50.130;8.526;2023-05-22T04:49:17;98736.50;;;13.37;66.78
27685;BME280;46113;50.130;8.526;2023-05-22T04:51:44;98735.91;;;13.90;65.76
27685;BME280;46113;50.130;8.526;2023-05-22T04:54:11;98741.47;;;13.53;67.20
27685;BME280;46113;50.130;8.526;2023-05-22T04:56:38;98732.75;;;13.85;65.93
27685;BME280;46113;50.130;8.526;2023-05-22T04:59:04;98736.56;;;14.15;64.34
27685;BME280;46113;50.130;8.526;2023-05-22T05:01:34;98739.13;;;13.83;65.09
27685;BME280;46113;50.130;8.526;2023-05-22T05:04:03;98734.69;;;14.06;64.40
27685;BME280;46113;50.130;8.526;2023-05-22T05:06:30;98738.28;;;14.05;63.21
27685;BME280;46113;50.130;8.526;2023-05-22T05:08:57;98745.50;;;14.58;62.72
27685;BME280;46113;50.130;8.526;2023-05-22T05:11:24;98745.66;;;14.57;61.71
27685;BME280;46113;50.130;8.526;2023-05-22T05:13:51;98749.22;;;14.67;62.15
27685;BME280;46113;50.130;8.526;2023-05-22T05:16:18;98743.97;;;14.77;61.23
27685;BME280;46113;50.130;8.526;2023-05-22T05:18:45;98755.47;;;15.10;61.31
27685;BME280;46113;50.130;8.526;2023-05-22T05:21:12;98751.16;;;15.19;60.34
27685;BME280;46113;50.130;8.526;2023-05-22T05:23:39;98750.47;;;15.48;60.70
27685;BME280;46113;50.130;8.526;2023-05-22T05:26:06;98757.13;;;15.33;61.15
27685;BME280;46113;50.130;8.526;2023-05-22T05:28:32;98758.38;;;15.60;59.56
27685;BME280;46113;50.130;8.526;2023-05-22T05:31:00;98747.50;;;15.83;59.85
27685;BME280;46113;50.130;8.526;2023-05-22T05:33:50;98750.41;;;15.70;58.76
27685;BME280;46113;50.130;8.526;2023-05-22T05:36:30;98758.50;;;15.89;59.01
27685;BME280;46113;50.130;8.526;2023-05-22T05:38:57;98759.22;;;15.60;60.78
27685;BME280;46113;50.130;8.526;2023-05-22T05:41:25;98755.13;;;15.87;59.86
27685;BME280;46113;50.130;8.526;2023-05-22T05:43:59;98757.44;;;16.12;58.24
27685;BME280;46113;50.130;8.526;2023-05-22T05:46:29;98755.09;;;16.38;57.88
27685;BME280;46113;50.130;8.526;2023-05-22T05:48:56;98756.22;;;16.36;58.78
27685;BME280;46113;50.130;8.526;2023-05-22T05:51:24;98757.06;;;16.66;57.60
27685;BME280;46113;50.130;8.526;2023-05-22T05:53:51;98761.75;;;16.74;56.80
27685;BME280;46113;50.130;8.526;2023-05-22T05:56:19;98758.06;;;16.94;56.29
27685;BME280;46113;50.130;8.526;2023-05-22T05:58:47;98755.94;;;16.39;55.46
27685;BME280;46113;50.130;8.526;2023-05-22T06:01:33;98763.00;;;16.79;57.14
27685;BME280;46113;50.130;8.526;2023-05-22T06:04:01;98759.44;;;17.08;55.62
27685;BME280;46113;50.130;8.526;2023-05-22T06:06:30;98757.44;;;17.20;55.08
27685;BME280;46113;50.130;8.526;2023-05-22T06:09:13;98761.69;;;17.71;54.01
27685;BME280;46113;50.130;8.526;2023-05-22T06:12:07;98758.00;;;18.00;53.45
27685;BME280;46113;50.130;8.526;2023-05-22T06:14:39;98769.59;;;17.63;53.26
27685;BME280;46113;50.130;8.526;2023-05-22T06:17:06;98770.53;;;17.71;53.66
27685;BME280;46113;50.130;8.526;2023-05-22T06:19:37;98769.06;;;17.87;52.84
27685;BME280;46113;50.130;8.526;2023-05-22T06:22:04;98773.72;;;18.31;52.75
27685;BME280;46113;50.130;8.526;2023-05-22T06:24:31;98764.06;;;18.48;52.38
27685;BME280;46113;50.130;8.526;2023-05-22T06:27:03;98768.38;;;18.59;51.85
27685;BME280;46113;50.130;8.526;2023-05-22T06:29:30;98774.41;;;18.43;52.92
27685;BME280;46113;50.130;8.526;2023-05-22T06:31:56;98771.19;;;18.58;52.67
27685;BME280;46113;50.130;8.526;2023-05-22T06:34:23;98773.84;;;18.76;51.88
27685;BME280;46113;50.130;8.526;2023-05-22T06:36:51;98772.31;;;18.91;50.96
27685;BME280;46113;50.130;8.526;2023-05-22T06:39:22;98770.94;;;18.69;51.59
27685;BME280;46113;50.130;8.526;2023-05-22T06:42:08;98772.72;;;18.78;51.27
27685;BME280;46113;50.130;8.526;2023-05-22T06:44:53;98783.63;;;19.03;51.61
27685;BME280;46113;50.130;8.526;2023-05-22T06:47:25;98781.38;;;19.35;50.51
27685;BME280;46113;50.130;8.526;2023-05-22T06:49:52;98781.53;;;19.95;49.61
27685;BME280;46113;50.130;8.526;2023-05-22T06:52:20;98769.50;;;20.07;48.84
27685;BME280;46113;50.130;8.526;2023-05-22T06:54:47;98772.81;;;20.69;48.09
27685;BME280;46113;50.130;8.526;2023-05-22T06:57:14;98774.53;;;20.95;46.62
27685;BME280;46113;50.130;8.526;2023-05-22T06:59:41;98784.19;;;21.54;45.56
27685;BME280;46113;50.130;8.526;2023-05-22T07:02:24;98776.09;;;21.71;44.58
27685;BME280;46113;50.130;8.526;2023-05-22T07:05:10;98780.72;;;22.02;44.21
27685;BME280;46113;50.130;8.526;2023-05-22T07:07:51;98789.31;;;22.29;42.01
27685;BME280;46113;50.130;8.526;2023-05-22T07:10:19;98785.94;;;22.82;41.70
27685;BME280;46113;50.130;8.526;2023-05-22T07:12:46;98789.25;;;22.93;42.60
27685;BME280;46113;50.130;8.526;2023-05-22T07:15:12;98796.41;;;23.24;40.27
27685;BME280;46113;50.130;8.526;2023-05-22T07:17:46;98796.69;;;22.67;40.72
27685;BME280;46113;50.130;8.526;2023-05-22T07:20:12;98799.03;;;22.70;41.63
27685;BME280;46113;50.130;8.526;2023-05-22T07:22:46;98805.63;;;23.30;40.75
27685;BME280;46113;50.130;8.526;2023-05-22T07:25:13;98798.66;;;22.73;41.96
27685;BME280;46113;50.130;8.526;2023-05-22T07:27:40;98795.50;;;23.47;40.79
27685;BME280;46113;50.130;8.526;2023-05-22T07:30:08;98803.22;;;23.35;40.69
27685;BME280;46113;50.130;8.526;2023-05-22T07:32:36;98802.59;;;24.08;39.57
27685;BME280;46113;50.130;8.526;2023-05-22T07:35:03;98796.94;;;24.40;38.32
27685;BME280;46113;50.130;8.526;2023-05-22T07:37:31;98793.00;;;23.45;40.21
27685;BME280;46113;50.130;8.526;2023-05-22T07:39:58;98793.66;;;23.92;40.10
27685;BME280;46113;50.130;8.526;2023-05-22T07:42:25;98786.84;;;25.43;37.94
27685;BME280;46113;50.130;8.526;2023-05-22T07:44:53;98786.47;;;26.37;35.58
27685;BME280;46113;50.130;8.526;2023-05-22T07:47:21;98786.16;;;26.80;33.53
27685;BME280;46113;50.130;8.526;2023-05-22T07:49:49;98784.00;;;26.49;33.21
27685;BME280;46113;50.130;8.526;2023-05-22T07:52:17;98794.50;;;26.65;33.65
27685;BME280;46113;50.130;8.526;2023-05-22T07:54:45;98788.44;;;27.38;31.55
27685;BME280;46113;50.130;8.526;2023-05-22T07:57:13;98781.56;;;27.35;31.25
27685;BME280;46113;50.130;8.526;2023-05-22T07:59:42;98785.78;;;28.82;29.78
27685;BME280;46113;50.130;8.526;2023-05-22T08:02:09;98786.13;;;27.61;29.49
27685;BME280;46113;50.130;8.526;2023-05-22T08:04:36;98776.91;;;28.67;28.78
27685;BME280;46113;50.130;8.526;2023-05-22T08:07:03;98786.19;;;28.14;29.11
27685;BME280;46113;50.130;8.526;2023-05-22T08:09:30;98783.00;;;27.65;29.15
27685;BME280;46113;50.130;8.526;2023-05-22T08:11:56;98780.81;;;30.04;26.75
27685;BME280;46113;50.130;8.526;2023-05-22T08:14:23;98785.84;;;30.69;26.20
27685;BME280;46113;50.130;8.526;2023-05-22T08:16:50;98783.50;;;30.84;25.81
27685;BME280;46113;50.130;8.526;2023-05-22T08:19:17;98779.00;;;32.73;24.16
27685;BME280;46113;50.130;8.526;2023-05-22T08:21:43;98777.16;;;31.38;24.85
27685;BME280;46113;50.130;8.526;2023-05-22T08:24:10;98782.00;;;32.42;24.07
27685;BME280;46113;50.130;8.526;2023-05-22T08:26:37;98782.22;;;31.11;24.73
27685;BME280;46113;50.130;8.526;2023-05-22T08:29:04;98780.44;;;31.88;24.74
27685;BME280;46113;50.130;8.526;2023-05-22T08:31:30;98777.97;;;31.03;24.83
27685;BME280;46113;50.130;8.526;2023-05-22T08:34:00;98774.22;;;33.54;23.91
27685;BME280;46113;50.130;8.526;2023-05-22T08:36:31;98769.31;;;33.56;23.29
27685;BME280;46113;50.130;8.526;2023-05-22T08:38:59;98774.56;;;32.55;23.46
27685;BME280;46113;50.130;8.526;2023-05-22T08:41:27;98769.06;;;32.67;23.38
27685;BME280;46113;50.130;8.526;2023-05-22T08:43:54;98766.09;;;33.59;22.39
27685;BME280;46113;50.130;8.526;2023-05-22T08:46:22;98768.25;;;34.29;21.74
27685;BME280;46113;50.130;8.526;2023-05-22T08:48:55;98777.72;;;33.49;22.62
27685;BME280;46113;50.130;8.526;2023-05-22T08:51:27;98761.44;;;32.86;22.55
27685;BME280;46113;50.130;8.526;2023-05-22T08:53:57;98757.00;;;35.29;20.96
27685;BME280;46113;50.130;8.526;2023-05-22T08:56:24;98757.13;;;32.90;23.10
27685;BME280;46113;50.130;8.526;2023-05-22T08:58:55;98762.69;;;32.49;23.71
27685;BME280;46113;50.130;8.526;2023-05-22T09:01:22;98742.63;;;34.13;21.55
27685;BME280;46113;50.130;8.526;2023-05-22T09:03:50;98745.63;;;34.12;20.69
27685;BME280;46113;50.130;8.526;2023-05-22T09:06:17;98750.41;;;35.25;20.43
27685;BME280;46113;50.130;8.526;2023-05-22T09:08:44;98742.97;;;35.74;21.29
27685;BME280;46113;50.130;8.526;2023-05-22T09:11:11;98744.00;;;35.57;20.33
27685;BME280;46113;50.130;8.526;2023-05-22T09:13:38;98740.00;;;35.32;20.76
27685;BME280;46113;50.130;8.526;2023-05-22T09:16:07;98736.31;;;34.73;21.11
27685;BME280;46113;50.130;8.526;2023-05-22T09:18:36;98733.13;;;34.54;21.92
27685;BME280;46113;50.130;8.526;2023-05-22T09:21:04;98737.66;;;36.73;20.81
27685;BME280;46113;50.130;8.526;2023-05-22T09:23:48;98734.88;;;37.85;19.41
27685;BME280;46113;50.130;8.526;2023-05-22T09:26:16;98735.72;;;35.52;20.28
27685;BME280;46113;50.130;8.526;2023-05-22T09:28:45;98731.13;;;35.73;20.07
27685;BME280;46113;50.130;8.526;2023-05-22T09:31:13;98741.81;;;35.59;20.50
27685;BME280;46113;50.130;8.526;2023-05-22T09:33:42;98730.59;;;35.18;22.69
27685;BME280;46113;50.130;8.526;2023-05-22T09:36:10;98723.69;;;30.28;26.30
27685;BME280;46113;50.130;8.526;2023-05-22T09:38:38;98721.94;;;33.38;23.56
27685;BME280;46113;50.130;8.526;2023-05-22T09:41:04;98723.25;;;30.86;24.29
27685;BME280;46113;50.130;8.526;2023-05-22T09:43:32;98723.03;;;31.11;25.84
27685;BME280;46113;50.130;8.526;2023-05-22T09:46:00;98720.31;;;30.57;24.96
27685;BME280;46113;50.130;8.526;2023-05-22T09:48:27;98713.59;;;30.17;25.42
27685;BME280;46113;50.130;8.526;2023-05-22T09:50:54;98719.09;;;29.42;26.99
27685;BME280;46113;50.130;8.526;2023-05-22T09:53:26;98708.56;;;29.45;26.31
27685;BME280;46113;50.130;8.526;2023-05-22T09:55:58;98707.22;;;29.55;27.75
27685;BME280;46113;50.130;8.526;2023-05-22T09:58:26;98712.44;;;29.19;28.49
27685;BME280;46113;50.130;8.526;2023-05-22T10:00:56;98705.41;;;28.60;29.44
27685;BME280;46113;50.130;8.526;2023-05-22T10:03:26;98709.63;;;27.71;27.99
27685;BME280;46113;50.130;8.526;2023-05-22T10:05:54;98713.34;;;26.77;28.51
27685;BME280;46113;50.130;8.526;2023-05-22T10:08:24;98711.53;;;25.95;30.11
27685;BME280;46113;50.130;8.526;2023-05-22T10:10:53;98709.13;;;27.22;30.81
27685;BME280;46113;50.130;8.526;2023-05-22T10:13:20;98711.22;;;27.27;29.74
27685;BME280;46113;50.130;8.526;2023-05-22T10:15:47;98711.91;;;27.02;29.60
27685;BME280;46113;50.130;8.526;2023-05-22T10:18:16;98710.41;;;26.79;30.03
27685;BME280;46113;50.130;8.526;2023-05-22T10:20:43;98703.50;;;26.29;28.77
27685;BME280;46113;50.130;8.526;2023-05-22T10:23:13;98703.75;;;26.61;29.92
27685;BME280;46113;50.130;8.526;2023-05-22T10:25:44;98701.66;;;27.11;29.54
27685;BME280;46113;50.130;8.526;2023-05-22T10:28:13;98704.56;;;26.68;31.26
27685;BME280;46113;50.130;8.526;2023-05-22T10:31:10;98692.06;;;26.54;29.85
27685;BME280;46113;50.130;8.526;2023-05-22T10:34:06;98695.03;;;25.76;29.89
27685;BME280;46113;50.130;8.526;2023-05-22T10:39:39;98690.19;;;25.30;30.84
27685;BME280;46113;50.130;8.526;2023-05-22T10:42:12;98687.31;;;25.80;31.74
27685;BME280;46113;50.130;8.526;2023-05-22T10:44:39;98684.97;;;25.70;31.57
27685;BME280;46113;50.130;8.526;2023-05-22T10:47:08;98683.97;;;25.78;30.42
27685;BME280;46113;50.130;8.526;2023-05-22T10:49:42;98684.59;;;25.73;30.66
27685;BME280;46113;50.130;8.526;2023-05-22T10:52:12;98682.44;;;25.62;30.53
27685;BME280;46113;50.130;8.526;2023-05-22T10:54:44;98681.44;;;25.28;31.18
27685;BME280;46113;50.130;8.526;2023-05-22T10:57:15;98676.88;;;24.71;31.39
27685;BME280;46113;50.130;8.526;2023-05-22T10:59:46;98676.06;;;24.77;30.94
27685;BME280;46113;50.130;8.526;2023-05-22T11:04:46;98674.88;;;25.50;31.28
27685;BME280;46113;50.130;8.526;2023-05-22T11:07:14;98672.28;;;25.00;34.19
27685;BME280;46113;50.130;8.526;2023-05-22T11:09:42;98670.56;;;25.21;34.04
27685;BME280;46113;50.130;8.526;2023-05-22T11:12:28;98668.25;;;24.61;33.67
27685;BME280;46113;50.130;8.526;2023-05-22T11:15:08;98668.50;;;24.66;34.73
27685;BME280;46113;50.130;8.526;2023-05-22T11:20:11;98667.44;;;24.60;34.59
27685;BME280;46113;50.130;8.526;2023-05-22T11:22:43;98674.34;;;24.69;33.23
27685;BME280;46113;50.130;8.526;2023-05-22T11:25:14;98660.75;;;24.84;32.96
27685;BME280;46113;50.130;8.526;2023-05-22T11:27:42;98663.84;;;24.53;33.06
27685;BME280;46113;50.130;8.526;2023-05-22T11:30:11;98657.38;;;24.32;33.46
27685;BME280;46113;50.130;8.526;2023-05-22T11:32:39;98666.34;;;24.54;35.92
27685;BME280;46113;50.130;8.526;2023-05-22T11:35:17;98667.53;;;24.73;39.00
27685;BME280;46113;50.130;8.526;2023-05-22T11:37:45;98660.50;;;24.51;37.96
27685;BME280;46113;50.130;8.526;2023-05-22T11:40:14;98667.09;;;24.48;36.83
27685;BME280;46113;50.130;8.526;2023-05-22T11:42:41;98663.00;;;24.09;36.25
27685;BME280;46113;50.130;8.526;2023-05-22T11:45:09;98663.66;;;24.83;39.98
27685;BME280;46113;50.130;8.526;2023-05-22T11:47:37;98656.09;;;25.07;38.41
27685;BME280;46113;50.130;8.526;2023-05-22T11:50:07;98655.56;;;25.18;34.04
27685;BME280;46113;50.130;8.526;2023-05-22T11:52:36;98655.91;;;25.08;33.51
27685;BME280;46113;50.130;8.526;2023-05-22T11:55:03;98641.03;;;24.62;32.89
27685;BME280;46113;50.130;8.526;2023-05-22T11:57:33;98644.34;;;24.57;33.78
27685;BME280;46113;50.130;8.526;2023-05-22T12:00:06;98644.63;;;24.98;33.86
27685;BME280;46113;50.130;8.526;2023-05-22T12:02:44;98644.63;;;25.33;33.71
27685;BME280;46113;50.130;8.526;2023-05-22T12:05:13;98631.00;;;25.13;31.31
27685;BME280;46113;50.130;8.526;2023-05-22T12:07:43;98631.56;;;24.73;32.53
27685;BME280;46113;50.130;8.526;2023-05-22T12:10:12;98635.91;;;25.03;30.82
27685;BME280;46113;50.130;8.526;2023-05-22T12:12:39;98623.03;;;25.54;34.67
27685;BME280;46113;50.130;8.526;2023-05-22T12:15:07;98627.47;;;25.68;36.51
27685;BME280;46113;50.130;8.526;2023-05-22T12:17:35;98622.78;;;25.42;38.40
27685;BME280;46113;50.130;8.526;2023-05-22T12:20:04;98623.69;;;25.62;39.70
27685;BME280;46113;50.130;8.526;2023-05-22T12:22:31;98622.13;;;25.33;39.15
27685;BME280;46113;50.130;8.526;2023-05-22T12:24:58;98622.53;;;25.30;33.94
27685;BME280;46113;50.130;8.526;2023-05-22T12:27:28;98626.53;;;25.41;38.19
27685;BME280;46113;50.130;8.526;2023-05-22T12:29:58;98624.72;;;25.55;41.69
27685;BME280;46113;50.130;8.526;2023-05-22T12:32:33;98615.09;;;25.45;39.08
27685;BME280;46113;50.130;8.526;2023-05-22T12:35:00;98612.75;;;25.77;41.04
27685;BME280;46113;50.130;8.526;2023-05-22T12:37:27;98613.50;;;25.58;36.65
27685;BME280;46113;50.130;8.526;2023-05-22T12:39:58;98611.00;;;25.63;40.97
27685;BME280;46113;50.130;8.526;2023-05-22T12:42:26;98612.88;;;25.62;38.98
27685;BME280;46113;50.130;8.526;2023-05-22T12:44:54;98609.81;;;25.72;41.72
27685;BME280;46113;50.130;8.526;2023-05-22T12:47:22;98605.72;;;26.10;41.66
27685;BME280;46113;50.130;8.526;2023-05-22T12:49:50;98608.66;;;26.36;38.49
27685;BME280;46113;50.130;8.526;2023-05-22T12:52:17;98605.34;;;26.34;39.10
27685;BME280;46113;50.130;8.526;2023-05-22T12:54:43;98610.53;;;26.55;36.52
27685;BME280;46113;50.130;8.526;2023-05-22T12:57:10;98606.53;;;26.24;33.56
27685;BME280;46113;50.130;8.526;2023-05-22T12:59:37;98608.03;;;26.40;32.57
27685;BME280;46113;50.130;8.526;2023-05-22T13:02:04;98591.34;;;26.37;30.76
27685;BME280;46113;50.130;8.526;2023-05-22T13:04:31;98595.50;;;26.39;29.69
27685;BME280;46113;50.130;8.526;2023-05-22T13:06:59;98598.59;;;26.09;30.82
27685;BME280;46113;50.130;8.526;2023-05-22T13:09:26;98595.09;;;26.49;29.58
27685;BME280;46113;50.130;8.526;2023-05-22T13:11:53;98592.59;;;26.27;30.95
27685;BME280;46113;50.130;8.526;2023-05-22T13:14:20;98597.16;;;26.00;31.97
27685;BME280;46113;50.130;8.526;2023-05-22T13:16:47;98582.34;;;26.09;30.09
27685;BME280;46113;50.130;8.526;2023-05-22T13:19:13;98588.88;;;26.35;32.43
27685;BME280;46113;50.130;8.526;2023-05-22T13:21:41;98590.06;;;26.06;30.50
27685;BME280;46113;50.130;8.526;2023-05-22T13:24:08;98591.31;;;25.89;31.15
27685;BME280;46113;50.130;8.526;2023-05-22T13:26:35;98587.94;;;25.81;30.63
27685;BME280;46113;50.130;8.526;2023-05-22T13:29:02;98588.03;;;25.45;30.14
27685;BME280;46113;50.130;8.526;2023-05-22T13:31:29;98597.94;;;25.24;31.43
27685;BME280;46113;50.130;8.526;2023-05-22T13:33:58;98598.72;;;25.60;30.57
27685;BME280;46113;50.130;8.526;2023-05-22T13:36:28;98601.69;;;25.86;35.32
27685;BME280;46113;50.130;8.526;2023-05-22T13:38:55;98592.53;;;25.94;34.20
27685;BME280;46113;50.130;8.526;2023-05-22T13:41:22;98590.88;;;25.93;38.09
27685;BME280;46113;50.130;8.526;2023-05-22T13:43:48;98603.16;;;25.75;40.35
27685;BME280;46113;50.130;8.526;2023-05-22T13:46:15;98601.28;;;25.20;43.06
27685;BME280;46113;50.130;8.526;2023-05-22T13:48:43;98601.97;;;25.35;42.42
27685;BME280;46113;50.130;8.526;2023-05-22T13:51:09;98601.97;;;25.35;41.75
27685;BME280;46113;50.130;8.526;2023-05-22T13:53:36;98592.28;;;25.12;42.53
27685;BME280;46113;50.130;8.526;2023-05-22T13:56:04;98594.06;;;24.98;41.98
27685;BME280;46113;50.130;8.526;2023-05-22T13:58:30;98594.72;;;24.72;42.54
27685;BME280;46113;50.130;8.526;2023-05-22T14:00:57;98596.69;;;24.56;41.92
27685;BME280;46113;50.130;8.526;2023-05-22T14:03:26;98595.38;;;24.24;44.70
27685;BME280;46113;50.130;8.526;2023-05-22T14:05:53;98594.25;;;23.89;44.69
27685;BME280;46113;50.130;8.526;2023-05-22T14:08:19;98598.25;;;23.78;47.24
27685;BME280;46113;50.130;8.526;2023-05-22T14:10:46;98601.16;;;23.40;47.97
27685;BME280;46113;50.130;8.526;2023-05-22T14:13:13;98614.63;;;23.10;51.92
27685;BME280;46113;50.130;8.526;2023-05-22T14:15:40;98613.91;;;22.47;52.28
27685;BME280;46113;50.130;8.526;2023-05-22T14:18:08;98632.66;;;21.62;58.46
27685;BME280;46113;50.130;8.526;2023-05-22T14:20:34;98628.25;;;20.56;60.64
27685;BME280;46113;50.130;8.526;2023-05-22T14:23:01;98627.75;;;20.11;65.68
27685;BME280;46113;50.130;8.526;2023-05-22T14:25:28;98619.00;;;19.32;67.15
27685;BME280;46113;50.130;8.526;2023-05-22T14:27:54;98617.31;;;19.31;66.19
27685;BME280;46113;50.130;8.526;2023-05-22T14:30:21;98611.69;;;19.59;65.40
27685;BME280;46113;50.130;8.526;2023-05-22T14:32:48;98609.88;;;19.77;64.72
27685;BME280;46113;50.130;8.526;2023-05-22T14:35:15;98619.50;;;19.96;68.62
27685;BME280;46113;50.130;8.526;2023-05-22T14:37:44;98618.34;;;20.23;67.53
27685;BME280;46113;50.130;8.526;2023-05-22T14:40:11;98622.72;;;20.41;64.72
27685;BME280;46113;50.130;8.526;2023-05-22T14:42:38;98622.72;;;20.16;64.63
27685;BME280;46113;50.130;8.526;2023-05-22T14:45:04;98623.56;;;20.25;64.60
27685;BME280;46113;50.130;8.526;2023-05-22T14:47:31;98619.69;;;20.28;63.00
27685;BME280;46113;50.130;8.526;2023-05-22T14:49:58;98630.53;;;19.76;65.67
27685;BME280;46113;50.130;8.526;2023-05-22T14:52:44;98618.75;;;19.69;66.82
27685;BME280;46113;50.130;8.526;2023-05-22T14:55:10;98622.78;;;19.73;68.07
27685;BME280;46113;50.130;8.526;2023-05-22T14:57:37;98617.84;;;19.87;67.02
27685;BME280;46113;50.130;8.526;2023-05-22T15:00:04;98627.47;;;19.63;66.88
27685;BME280;46113;50.130;8.526;2023-05-22T15:02:32;98628.41;;;19.37;68.35
27685;BME280;46113;50.130;8.526;2023-05-22T15:04:59;98626.13;;;19.15;69.92
27685;BME280;46113;50.130;8.526;2023-05-22T15:07:26;98639.88;;;18.94;70.48
27685;BME280;46113;50.130;8.526;2023-05-22T15:10:09;98637.00;;;19.14;70.81
27685;BME280;46113;50.130;8.526;2023-05-22T15:12:35;98646.94;;;18.95;69.88
27685;BME280;46113;50.130;8.526;2023-05-22T15:15:02;98641.22;;;18.45;71.20
27685;BME280;46113;50.130;8.526;2023-05-22T15:17:29;98634.94;;;17.82;72.57
27685;BME280;46113;50.130;8.526;2023-05-22T15:19:56;98647.25;;;17.93;71.34
27685;BME280;46113;50.130;8.526;2023-05-22T15:22:23;98642.41;;;18.51;71.21
27685;BME280;46113;50.130;8.526;2023-05-22T15:25:05;98638.41;;;18.47;69.85
27685;BME280;46113;50.130;8.526;2023-05-22T15:27:32;98635.13;;;18.61;70.05
27685;BME280;46113;50.130;8.526;2023-05-22T15:30:01;98632.75;;;18.76;69.68
27685;BME280;46113;50.130;8.526;2023-05-22T15:32:28;98633.72;;;18.12;70.39
27685;BME280;46113;50.130;8.526;2023-05-22T15:34:56;98635.88;;;18.09;71.23
27685;BME280;46113;50.130;8.526;2023-05-22T15:37:22;98625.56;;;18.14;72.58
27685;BME280;46113;50.130;8.526;2023-05-22T15:39:49;98630.34;;;17.92;70.77
27685;BME280;46113;50.130;8.526;2023-05-22T15:42:16;98624.44;;;17.70;70.77
27685;BME280;46113;50.130;8.526;2023-05-22T15:44:43;98624.94;;;17.84;71.27
27685;BME280;46113;50.130;8.526;2023-05-22T15:47:09;98617.72;;;17.66;71.12
27685;BME280;46113;50.130;8.526;2023-05-22T15:49:36;98612.88;;;17.24;71.61
27685;BME280;46113;50.130;8.526;2023-05-22T15:52:05;98619.03;;;17.52;72.05
27685;BME280;46113;50.130;8.526;2023-05-22T15:54:32;98620.03;;;17.51;71.49
27685;BME280;46113;50.130;8.526;2023-05-22T15:56:58;98626.00;;;17.91;70.53
27685;BME280;46113;50.130;8.526;2023-05-22T15:59:25;98625.81;;;17.56;71.14
27685;BME280;46113;50.130;8.526;2023-05-22T16:01:52;98625.09;;;17.82;71.36
27685;BME280;46113;50.130;8.526;2023-05-22T16:04:18;98622.53;;;17.63;72.23
27685;BME280;46113;50.130;8.526;2023-05-22T16:06:45;98624.06;;;17.65;70.89
27685;BME280;46113;50.130;8.526;2023-05-22T16:09:11;98625.50;;;17.59;71.05
27685;BME280;46113;50.130;8.526;2023-05-22T16:11:38;98628.06;;;17.51;73.09
27685;BME280;46113;50.130;8.526;2023-05-22T16:14:05;98629.63;;;17.44;74.58
27685;BME280;46113;50.130;8.526;2023-05-22T16:16:32;98637.16;;;17.68;72.56
27685;BME280;46113;50.130;8.526;2023-05-22T16:18:59;98635.44;;;17.39;72.18
27685;BME280;46113;50.130;8.526;2023-05-22T16:21:26;98647.75;;;17.60;73.04
27685;BME280;46113;50.130;8.526;2023-05-22T16:23:52;98640.34;;;17.72;71.95
27685;BME280;46113;50.130;8.526;2023-05-22T16:26:19;98652.81;;;17.63;72.26
27685;BME280;46113;50.130;8.526;2023-05-22T16:28:47;98651.03;;;17.54;71.36
27685;BME280;46113;50.130;8.526;2023-05-22T16:31:16;98659.44;;;17.21;72.86
27685;BME280;46113;50.130;8.526;2023-05-22T16:33:45;98661.88;;;17.04;75.95
27685;BME280;46113;50.130;8.526;2023-05-22T16:36:12;98666.66;;;17.11;74.03
27685;BME280;46113;50.130;8.526;2023-05-22T16:38:38;98671.69;;;17.14;74.96
27685;BME280;46113;50.130;8.526;2023-05-22T16:41:05;98682.75;;;17.29;74.55
27685;BME280;46113;50.130;8.526;2023-05-22T16:43:32;98682.88;;;17.27;74.60
27685;BME280;46113;50.130;8.526;2023-05-22T16:45:59;98690.88;;;16.89;74.45
27685;BME280;46113;50.130;8.526;2023-05-22T16:48:26;98679.19;;;16.90;76.25
27685;BME280;46113;50.130;8.526;2023-05-22T16:50:53;98682.53;;;17.12;74.52
27685;BME280;46113;50.130;8.526;2023-05-22T16:53:19;98686.03;;;17.13;74.97
27685;BME280;46113;50.130;8.526;2023-05-22T16:55:46;98694.38;;;17.00;76.32
27685;BME280;46113;50.130;8.526;2023-05-22T16:58:13;98695.03;;;17.12;74.64
27685;BME280;46113;50.130;8.526;2023-05-22T17:00:40;98689.97;;;17.18;73.79
27685;BME280;46113;50.130;8.526;2023-05-22T17:03:07;98691.25;;;17.04;75.44
27685;BME280;46113;50.130;8.526;2023-05-22T17:05:36;98684.78;;;17.07;75.10
27685;BME280;46113;50.130;8.526;2023-05-22T17:08:03;98688.66;;;16.85;75.44
27685;BME280;46113;50.130;8.526;2023-05-22T17:10:29;98693.56;;;16.60;76.09
27685;BME280;46113;50.130;8.526;2023-05-22T17:12:56;98688.09;;;16.71;75.92
27685;BME280;46113;50.130;8.526;2023-05-22T17:15:23;98689.50;;;16.75;75.59